createdAt,value
2022-07-29T00:02:15.716Z,100367.88
2022-07-29T00:04:46.808Z,100364.59
2022-07-29T00:07:24.438Z,100367.06
2022-07-29T00:09:55.511Z,100355.44
2022-07-29T00:12:26.764Z,100365.50
2022-07-29T00:14:56.126Z,100350.47
2022-07-29T00:17:26.862Z,100349.63
2022-07-29T00:20:01.157Z,100349.41
2022-07-29T00:22:32.435Z,100348.00
2022-07-29T00:25:01.551Z,100343.47
2022-07-29T00:27:28.470Z,100342.94
2022-07-29T00:29:56.790Z,100337.66
2022-07-29T00:32:23.991Z,100346.09
2022-07-29T00:35:19.503Z,100344.09
2022-07-29T00:37:52.499Z,100347.69
2022-07-29T00:40:23.578Z,100346.06
2022-07-29T00:42:54.170Z,100345.00
2022-07-29T00:45:21.412Z,100350.06
2022-07-29T00:47:55.972Z,100345.13
2022-07-29T00:50:25.001Z,100344.22
2022-07-29T00:52:55.907Z,100340.94
2022-07-29T00:55:28.361Z,100346.00
2022-07-29T00:57:58.229Z,100343.53
2022-07-29T01:00:27.656Z,100345.19
2022-07-29T01:02:56.088Z,100351.66
2022-07-29T01:05:50.429Z,100349.84
2022-07-29T01:08:17.299Z,100353.31
2022-07-29T01:10:45.514Z,100356.09
2022-07-29T01:13:20.136Z,100351.16
2022-07-29T01:16:04.319Z,100347.56
2022-07-29T01:18:37.343Z,100349.19
2022-07-29T01:21:04.991Z,100351.59
2022-07-29T01:24:04.785Z,100344.72
2022-07-29T01:26:48.141Z,100350.28
2022-07-29T01:29:21.946Z,100343.94
2022-07-29T01:32:00.971Z,100346.28
2022-07-29T01:34:48.839Z,100340.44
2022-07-29T01:37:30.891Z,100340.66
2022-07-29T01:40:01.653Z,100338.53
2022-07-29T01:42:43.873Z,100337.28
2022-07-29T01:45:18.159Z,100334.66
2022-07-29T01:48:02.596Z,100345.91
2022-07-29T01:50:38.524Z,100343.06
2022-07-29T01:53:10.517Z,100339.31
2022-07-29T01:55:41.681Z,100332.28
2022-07-29T01:58:10.455Z,100329.81
2022-07-29T02:00:40.709Z,100337.31
2022-07-29T02:03:13.963Z,100331.53
2022-07-29T02:05:45.930Z,100329.59
2022-07-29T02:08:16.211Z,100329.59
2022-07-29T02:10:51.343Z,100326.28
2022-07-29T02:13:22.002Z,100326.75
2022-07-29T02:16:00.074Z,100329.53
2022-07-29T02:18:29.503Z,100314.69
2022-07-29T02:20:59.654Z,100332.72
2022-07-29T02:23:27.816Z,100331.38
2022-07-29T02:26:01.959Z,100333.47
2022-07-29T02:28:33.588Z,100328.06
2022-07-29T02:31:03.654Z,100325.66
2022-07-29T02:33:35.246Z,100325.13
2022-07-29T02:36:04.498Z,100319.22
2022-07-29T02:38:51.688Z,100320.44
2022-07-29T02:41:24.696Z,100314.19
2022-07-29T02:44:07.603Z,100319.50
2022-07-29T02:46:47.846Z,100316.06
2022-07-29T02:49:21.455Z,100320.00
2022-07-29T02:51:58.719Z,100315.38
2022-07-29T02:55:02.506Z,100316.22
2022-07-29T02:57:54.603Z,100314.84
2022-07-29T03:00:25.938Z,100306.16
2022-07-29T03:02:58.648Z,100308.03
2022-07-29T03:05:27.516Z,100310.94
2022-07-29T03:07:59.951Z,100310.31
2022-07-29T03:10:33.583Z,100304.19
2022-07-29T03:13:06.262Z,100311.81
2022-07-29T03:15:35.017Z,100306.28
2022-07-29T03:18:04.205Z,100311.81
2022-07-29T03:20:31.633Z,100311.81
2022-07-29T03:23:04.548Z,100316.38
2022-07-29T03:25:33.229Z,100317.81
2022-07-29T03:28:00.303Z,100317.66
2022-07-29T03:30:27.528Z,100314.94
2022-07-29T03:32:59.774Z,100314.50
2022-07-29T03:35:28.434Z,100319.75
2022-07-29T03:37:59.801Z,100307.59
2022-07-29T03:40:41.633Z,100314.81
2022-07-29T03:43:11.020Z,100315.22
2022-07-29T03:45:39.273Z,100322.28
2022-07-29T03:48:14.218Z,100322.72
2022-07-29T03:50:41.531Z,100316.91
2022-07-29T03:53:11.837Z,100314.47
2022-07-29T03:55:47.451Z,100316.56
2022-07-29T03:58:17.206Z,100307.47
2022-07-29T04:00:49.753Z,100317.97
2022-07-29T04:03:23.286Z,100319.41
2022-07-29T04:06:03.224Z,100317.75
2022-07-29T04:08:30.244Z,100323.25
2022-07-29T04:11:05.244Z,100329.00
2022-07-29T04:13:36.634Z,100328.53
2022-07-29T04:16:11.224Z,100328.25
2022-07-29T04:18:43.621Z,100329.25
2022-07-29T04:21:12.877Z,100330.41
2022-07-29T04:23:56.240Z,100326.88
2022-07-29T04:26:26.819Z,100331.47
2022-07-29T04:28:54.137Z,100328.84
2022-07-29T04:31:27.096Z,100329.38
2022-07-29T04:33:56.255Z,100330.91
2022-07-29T04:36:29.260Z,100320.69
2022-07-29T04:39:08.064Z,100332.00
2022-07-29T04:41:43.724Z,100333.19
2022-07-29T04:44:14.843Z,100324.59
2022-07-29T04:46:47.635Z,100328.34
2022-07-29T04:49:17.335Z,100331.19
2022-07-29T04:51:44.634Z,100332.56
2022-07-29T04:54:15.527Z,100335.59
2022-07-29T04:56:50.824Z,100333.41
2022-07-29T04:59:50.304Z,100335.38
2022-07-29T05:02:27.841Z,100323.44
2022-07-29T05:05:02.872Z,100341.53
2022-07-29T05:07:31.731Z,100342.53
2022-07-29T05:09:58.778Z,100341.66
2022-07-29T05:12:27.218Z,100341.25
2022-07-29T05:15:02.410Z,100346.34
2022-07-29T05:17:33.861Z,100345.59
2022-07-29T05:20:11.010Z,100347.00
2022-07-29T05:22:40.157Z,100345.03
2022-07-29T05:25:18.632Z,100352.94
2022-07-29T05:27:46.668Z,100349.75
2022-07-29T05:30:27.400Z,100347.03
2022-07-29T05:33:03.184Z,100351.78
2022-07-29T05:35:30.406Z,100358.53
2022-07-29T05:37:58.922Z,100362.47
2022-07-29T05:40:34.531Z,100361.53
2022-07-29T05:43:13.473Z,100364.34
2022-07-29T05:46:17.079Z,100368.84
2022-07-29T05:48:48.647Z,100374.00
2022-07-29T05:51:15.626Z,100368.88
2022-07-29T05:53:46.362Z,100363.38
2022-07-29T05:56:25.640Z,100374.59
2022-07-29T05:58:54.480Z,100367.94
2022-07-29T06:01:21.532Z,100364.72
2022-07-29T06:03:50.456Z,100364.22
2022-07-29T06:06:19.555Z,100360.81
2022-07-29T06:08:50.420Z,100362.97
2022-07-29T06:11:17.810Z,100364.22
2022-07-29T06:13:53.684Z,100355.34
2022-07-29T06:16:35.080Z,100366.84
2022-07-29T06:19:02.249Z,100364.97
2022-07-29T06:21:34.649Z,100369.88
2022-07-29T06:24:17.062Z,100369.16
2022-07-29T06:26:52.699Z,100364.00
2022-07-29T06:29:25.187Z,100373.91
2022-07-29T06:31:59.334Z,100367.13
2022-07-29T06:34:33.571Z,100366.09
2022-07-29T06:37:15.561Z,100362.00
2022-07-29T06:40:10.386Z,100370.81
2022-07-29T06:42:43.937Z,100366.75
2022-07-29T06:45:16.188Z,100364.84
2022-07-29T06:48:29.440Z,100368.75
2022-07-29T06:50:59.981Z,100372.63
2022-07-29T06:53:28.105Z,100366.63
2022-07-29T06:56:00.035Z,100371.00
2022-07-29T06:58:33.067Z,100374.81
2022-07-29T07:01:05.488Z,100377.53
2022-07-29T07:03:33.435Z,100365.94
2022-07-29T07:06:01.363Z,100366.22
2022-07-29T07:08:30.093Z,100364.59
2022-07-29T07:10:57.951Z,100363.50
2022-07-29T07:13:38.946Z,100361.94
2022-07-29T07:16:05.974Z,100363.66
2022-07-29T07:18:32.984Z,100361.97
2022-07-29T07:21:03.416Z,100359.31
2022-07-29T07:23:30.275Z,100355.53
2022-07-29T07:25:57.134Z,100356.03
2022-07-29T07:28:26.343Z,100355.75
2022-07-29T07:30:57.512Z,100355.22
2022-07-29T07:33:31.069Z,100365.56
2022-07-29T07:36:06.710Z,100366.47
2022-07-29T07:38:52.023Z,100360.19
2022-07-29T07:41:32.471Z,100369.19
2022-07-29T07:44:16.119Z,100358.31
2022-07-29T07:46:46.040Z,100360.81
2022-07-29T07:49:23.433Z,100356.22
2022-07-29T07:51:51.195Z,100358.38
2022-07-29T07:54:20.778Z,100361.13
2022-07-29T07:56:55.195Z,100370.97
2022-07-29T07:59:23.025Z,100374.75
2022-07-29T08:01:55.630Z,100376.41
2022-07-29T08:04:28.165Z,100373.38
2022-07-29T08:06:58.232Z,100368.19
2022-07-29T08:09:29.926Z,100370.16
2022-07-29T08:12:00.069Z,100378.09
2022-07-29T08:14:33.210Z,100370.19
2022-07-29T08:17:02.073Z,100377.28
2022-07-29T08:19:32.772Z,100378.69
2022-07-29T08:22:00.726Z,100383.38
2022-07-29T08:24:44.520Z,100378.78
2022-07-29T08:27:33.337Z,100370.56
2022-07-29T08:30:00.164Z,100377.44
2022-07-29T08:35:45.190Z,100378.81
2022-07-29T08:38:15.752Z,100380.47
2022-07-29T08:40:42.666Z,100385.09
2022-07-29T08:43:15.978Z,100387.28
2022-07-29T08:46:01.915Z,100392.50
2022-07-29T08:48:32.196Z,100384.03
2022-07-29T08:51:01.635Z,100377.22
2022-07-29T08:53:32.030Z,100378.56
2022-07-29T08:56:02.150Z,100369.56
2022-07-29T08:58:37.030Z,100375.59
2022-07-29T09:01:06.846Z,100368.50
2022-07-29T09:03:38.157Z,100358.16
2022-07-29T09:06:06.370Z,100360.59
2022-07-29T09:08:34.685Z,100360.38
2022-07-29T09:11:09.187Z,100364.97
2022-07-29T09:13:37.296Z,100357.94
2022-07-29T09:16:09.368Z,100352.50
2022-07-29T09:18:46.457Z,100363.66
2022-07-29T09:21:40.289Z,100350.59
2022-07-29T09:24:21.263Z,100352.50
2022-07-29T09:26:54.209Z,100357.13
2022-07-29T09:29:27.631Z,100349.75
2022-07-29T09:31:56.719Z,100350.06
2022-07-29T09:34:33.206Z,100342.41
2022-07-29T09:37:03.042Z,100350.03
2022-07-29T09:39:38.209Z,100347.03
2022-07-29T09:42:10.812Z,100336.38
2022-07-29T09:44:52.689Z,100339.38
2022-07-29T09:47:22.977Z,100332.28
2022-07-29T09:49:55.535Z,100336.38
2022-07-29T09:52:22.831Z,100341.00
2022-07-29T09:54:55.479Z,100329.84
2022-07-29T09:57:30.863Z,100326.53
2022-07-29T10:00:20.022Z,100331.44
2022-07-29T10:02:52.938Z,100327.06
2022-07-29T10:05:36.110Z,100325.41
2022-07-29T10:08:04.813Z,100327.84
2022-07-29T10:10:37.629Z,100319.34
2022-07-29T10:13:35.539Z,100316.88
2022-07-29T10:16:03.752Z,100316.81
2022-07-29T10:18:36.653Z,100320.91
2022-07-29T10:21:07.759Z,100314.56
2022-07-29T10:23:46.193Z,100310.22
2022-07-29T10:26:14.175Z,100305.25
2022-07-29T10:28:41.302Z,100306.31
2022-07-29T10:31:24.193Z,100303.50
2022-07-29T10:34:11.416Z,100295.00
2022-07-29T10:37:25.877Z,100292.75
2022-07-29T10:40:38.293Z,100296.22
2022-07-29T10:43:31.905Z,100293.22
2022-07-29T10:46:07.330Z,100289.00
2022-07-29T10:49:15.449Z,100292.97
2022-07-29T10:52:05.817Z,100284.22
2022-07-29T10:54:44.335Z,100285.09
2022-07-29T10:57:53.185Z,100284.47
2022-07-29T11:00:35.874Z,100281.00
2022-07-29T11:03:11.710Z,100285.69
2022-07-29T11:05:59.888Z,100285.69
2022-07-29T11:08:32.402Z,100290.09
2022-07-29T11:11:22.584Z,100284.06
2022-07-29T11:14:05.516Z,100284.16
2022-07-29T11:17:06.490Z,100282.06
2022-07-29T11:19:48.014Z,100266.34
2022-07-29T11:22:45.946Z,100266.66
2022-07-29T11:25:42.770Z,100259.88
2022-07-29T11:28:22.905Z,100255.00
2022-07-29T11:31:12.021Z,100256.81
2022-07-29T11:33:56.386Z,100257.06
2022-07-29T11:36:28.031Z,100249.63
2022-07-29T11:39:36.848Z,100248.19
2022-07-29T11:42:32.164Z,100262.38
2022-07-29T11:45:43.923Z,100245.91
2022-07-29T11:48:27.585Z,100248.69
2022-07-29T11:50:48.604Z,100238.84
2022-07-29T11:56:20.107Z,100241.63
2022-07-29T11:59:08.660Z,100245.41
2022-07-29T12:02:02.433Z,100241.78
2022-07-29T12:04:59.239Z,100239.97
2022-07-29T12:07:38.952Z,100235.47
2022-07-29T12:10:19.752Z,100228.66
2022-07-29T12:12:57.620Z,100230.50
2022-07-29T12:15:45.996Z,100235.47
2022-07-29T12:18:37.950Z,100234.97
2022-07-29T12:21:12.487Z,100232.03
2022-07-29T12:24:05.437Z,100230.28
2022-07-29T12:26:35.975Z,100222.84
2022-07-29T12:29:14.087Z,100215.84
2022-07-29T12:31:45.844Z,100212.28
2022-07-29T12:34:16.893Z,100206.66
2022-07-29T12:36:54.568Z,100200.25
2022-07-29T12:39:35.103Z,100205.13
2022-07-29T12:42:18.619Z,100198.72
2022-07-29T12:45:06.739Z,100193.75
2022-07-29T12:47:54.630Z,100193.44
2022-07-29T12:50:26.393Z,100189.41
2022-07-29T12:52:53.501Z,100184.91
2022-07-29T12:55:46.504Z,100173.44
2022-07-29T12:58:30.830Z,100172.75
2022-07-29T13:01:05.233Z,100159.06
2022-07-29T13:04:06.746Z,100161.56
2022-07-29T13:07:19.883Z,100160.06
2022-07-29T13:10:52.555Z,100158.94
2022-07-29T13:13:33.408Z,100153.91
2022-07-29T13:16:23.020Z,100154.88
2022-07-29T13:19:12.200Z,100149.38
2022-07-29T13:21:40.363Z,100146.38
2022-07-29T13:24:36.382Z,100144.31
2022-07-29T13:27:18.864Z,100146.44
2022-07-29T13:29:47.692Z,100145.84
2022-07-29T13:32:41.997Z,100145.22
2022-07-29T13:35:33.367Z,100143.63
2022-07-29T13:38:14.744Z,100143.09
2022-07-29T13:40:49.174Z,100145.34
2022-07-29T13:43:44.076Z,100145.53
2022-07-29T13:46:20.957Z,100147.16
2022-07-29T13:48:54.789Z,100139.66
2022-07-29T13:51:33.657Z,100140.19
2022-07-29T13:54:07.679Z,100144.06
2022-07-29T13:56:44.125Z,100137.84
2022-07-29T13:59:26.907Z,100134.56
2022-07-29T14:02:01.623Z,100133.38
2022-07-29T14:04:33.165Z,100134.13
2022-07-29T14:07:03.780Z,100134.44
2022-07-29T14:09:56.872Z,100133.00
2022-07-29T14:12:36.787Z,100129.13
2022-07-29T14:15:10.651Z,100125.50
2022-07-29T14:17:48.199Z,100127.50
2022-07-29T14:20:21.380Z,100128.53
2022-07-29T14:22:54.137Z,100126.41
2022-07-29T14:25:27.680Z,100126.72
2022-07-29T14:28:01.787Z,100124.50
2022-07-29T14:30:44.726Z,100117.38
2022-07-29T14:33:20.692Z,100118.78
2022-07-29T14:35:52.548Z,100109.75
2022-07-29T14:38:22.576Z,100108.31
2022-07-29T14:40:54.609Z,100111.06
2022-07-29T14:43:36.716Z,100109.94
2022-07-29T14:46:12.404Z,100104.78
2022-07-29T14:48:55.218Z,100091.06
2022-07-29T14:51:32.434Z,100100.69
2022-07-29T14:54:07.192Z,100090.03
2022-07-29T14:56:37.854Z,100096.31
2022-07-29T14:59:30.659Z,100095.03
2022-07-29T15:02:03.643Z,100094.41
2022-07-29T15:04:32.579Z,100089.72
2022-07-29T15:07:15.119Z,100083.22
2022-07-29T15:09:51.323Z,100091.53
2022-07-29T15:12:26.031Z,100089.94
2022-07-29T15:14:55.096Z,100079.06
2022-07-29T15:17:24.619Z,100097.25
2022-07-29T15:19:54.763Z,100088.53
2022-07-29T15:22:37.995Z,100081.41
2022-07-29T15:25:13.602Z,100080.19
2022-07-29T15:27:48.916Z,100070.03
2022-07-29T15:30:33.987Z,100067.47
2022-07-29T15:33:06.553Z,100063.38
2022-07-29T15:35:41.936Z,100062.50
2022-07-29T15:38:11.045Z,100060.16
2022-07-29T15:40:48.964Z,100052.94
2022-07-29T15:43:28.811Z,100053.47
2022-07-29T15:46:20.046Z,100051.75
2022-07-29T15:49:00.482Z,100048.16
2022-07-29T15:51:44.906Z,100047.28
2022-07-29T15:54:15.661Z,100047.25
2022-07-29T15:57:00.920Z,100045.84
2022-07-29T15:59:37.322Z,100039.34
2022-07-29T16:02:33.553Z,100041.59
2022-07-29T16:05:09.506Z,100042.22
2022-07-29T16:07:56.657Z,100032.34
2022-07-29T16:10:39.587Z,100037.31
2022-07-29T16:13:26.034Z,100039.75
2022-07-29T16:16:02.036Z,100042.47
2022-07-29T16:18:36.265Z,100035.88
2022-07-29T16:21:32.117Z,100033.84
2022-07-29T16:24:09.965Z,100035.97
2022-07-29T16:26:41.403Z,100028.97
2022-07-29T16:29:14.240Z,100027.25
2022-07-29T16:31:45.751Z,100028.78
2022-07-29T16:34:15.113Z,100026.97
2022-07-29T16:37:15.399Z,100023.72
2022-07-29T16:39:48.970Z,100017.22
2022-07-29T16:42:37.087Z,100018.53
2022-07-29T16:45:11.694Z,100016.38
2022-07-29T16:47:43.351Z,100019.22
2022-07-29T16:50:11.038Z,100023.69
2022-07-29T16:52:53.028Z,100013.31
2022-07-29T16:55:28.332Z,100016.19
2022-07-29T16:57:58.908Z,100015.16
2022-07-29T17:00:31.734Z,100010.78
2022-07-29T17:03:04.681Z,100010.56
2022-07-29T17:05:52.732Z,100011.19
2022-07-29T17:08:27.971Z,100006.63
2022-07-29T17:11:05.036Z,100017.88
2022-07-29T17:13:34.907Z,100016.56
2022-07-29T17:16:04.846Z,100016.56
2022-07-29T17:18:59.199Z,100017.97
2022-07-29T17:21:36.400Z,100010.13
2022-07-29T17:24:16.941Z,100013.78
2022-07-29T17:26:50.344Z,100018.22
2022-07-29T17:29:20.745Z,100015.06
2022-07-29T17:31:47.827Z,100017.88
2022-07-29T17:34:18.926Z,100017.69
2022-07-29T17:36:48.492Z,100020.50
2022-07-29T17:39:17.847Z,100016.22
2022-07-29T17:41:48.220Z,100013.56
2022-07-29T17:44:15.518Z,100015.94
2022-07-29T17:46:42.704Z,100013.28
2022-07-29T17:49:10.883Z,100012.88
2022-07-29T17:51:43.430Z,100012.16
2022-07-29T17:54:10.945Z,100016.59
2022-07-29T17:56:38.996Z,100027.63
2022-07-29T17:59:09.183Z,100030.50
2022-07-29T18:01:39.130Z,100025.41
2022-07-29T18:04:06.205Z,100028.22
2022-07-29T18:06:40.717Z,100027.75
2022-07-29T18:09:08.182Z,100032.78
2022-07-29T18:11:36.566Z,100032.34
2022-07-29T18:14:11.256Z,100038.66
2022-07-29T18:16:38.658Z,100030.84
2022-07-29T18:19:08.825Z,100036.34
2022-07-29T18:21:51.455Z,100043.91
2022-07-29T18:24:30.293Z,100042.16
2022-07-29T18:27:07.986Z,100041.97
2022-07-29T18:29:36.181Z,100029.28
2022-07-29T18:32:05.336Z,100037.84
2022-07-29T18:34:34.026Z,100032.78
2022-07-29T18:37:10.933Z,100042.16
2022-07-29T18:39:40.477Z,100043.38
2022-07-29T18:42:07.989Z,100047.78
2022-07-29T18:44:43.576Z,100045.94
2022-07-29T18:47:17.017Z,100046.81
2022-07-29T18:49:44.370Z,100042.75
2022-07-29T18:52:12.443Z,100047.66
2022-07-29T18:54:48.089Z,100046.91
2022-07-29T18:57:53.703Z,100055.63
2022-07-29T19:00:15.258Z,100054.56
2022-07-29T19:02:45.659Z,100050.22
2022-07-29T19:05:18.397Z,100057.91
2022-07-29T19:07:45.310Z,100055.72
2022-07-29T19:10:12.626Z,100060.09
2022-07-29T19:12:49.765Z,100070.97
2022-07-29T19:15:19.976Z,100078.59
2022-07-29T19:17:46.954Z,100084.03
2022-07-29T19:20:14.470Z,100079.13
2022-07-29T19:22:51.207Z,100078.03
2022-07-29T19:25:19.628Z,100073.94
2022-07-29T19:27:47.317Z,100076.69
2022-07-29T19:30:23.161Z,100077.22
2022-07-29T19:32:51.997Z,100077.47
2022-07-29T19:35:25.687Z,100082.94
2022-07-29T19:37:57.387Z,100082.41
2022-07-29T19:40:30.823Z,100090.59
2022-07-29T19:43:00.155Z,100083.47
2022-07-29T19:45:31.470Z,100086.75
2022-07-29T19:48:01.666Z,100086.75
2022-07-29T19:50:36.499Z,100080.75
2022-07-29T19:53:05.289Z,100084.56
2022-07-29T19:55:32.230Z,100082.41
2022-07-29T19:58:06.136Z,100086.50
2022-07-29T20:00:38.544Z,100085.13
2022-07-29T20:03:12.143Z,100088.09
2022-07-29T20:05:51.862Z,100089.47
2022-07-29T20:08:24.467Z,100092.19
2022-07-29T20:10:57.718Z,100094.38
2022-07-29T20:13:27.009Z,100094.69
2022-07-29T20:15:53.991Z,100088.41
2022-07-29T20:18:30.461Z,100094.66
2022-07-29T20:20:57.713Z,100092.50
2022-07-29T20:23:33.446Z,100091.38
2022-07-29T20:26:19.483Z,100088.94
2022-07-29T20:28:54.160Z,100096.28
2022-07-29T20:31:30.003Z,100098.47
2022-07-29T20:33:59.114Z,100096.81
2022-07-29T20:36:28.814Z,100098.72
2022-07-29T20:39:06.673Z,100099.00
2022-07-29T20:41:34.033Z,100088.69
2022-07-29T20:44:04.818Z,100099.56
2022-07-29T20:46:32.104Z,100088.13
2022-07-29T20:49:10.137Z,100087.56
2022-07-29T20:51:49.266Z,100096.28
2022-07-29T20:54:23.618Z,100086.22
2022-07-29T20:56:57.009Z,100093.84
2022-07-29T20:59:32.324Z,100093.84
2022-07-29T21:02:07.021Z,100093.28
2022-07-29T21:04:53.333Z,100090.56
2022-07-29T21:07:42.471Z,100090.28
2022-07-29T21:10:41.408Z,100093.84
2022-07-29T21:13:11.558Z,100109.91
2022-07-29T21:15:54.724Z,100104.19
2022-07-29T21:18:51.898Z,100106.63
2022-07-29T21:24:28.419Z,100105.56
2022-07-29T21:27:23.067Z,100099.53
2022-07-29T21:29:53.564Z,100105.25
2022-07-29T21:32:29.949Z,100103.63
2022-07-29T21:34:59.742Z,100100.06
2022-07-29T21:37:56.646Z,100102.25
2022-07-29T21:40:39.840Z,100091.34
2022-07-29T21:43:34.188Z,100091.59
2022-07-29T21:46:18.459Z,100088.25
2022-07-29T21:48:53.306Z,100088.53
2022-07-29T21:51:30.354Z,100094.94
2022-07-29T21:54:15.742Z,100097.41
2022-07-29T21:57:09.405Z,100098.94
2022-07-29T21:59:36.263Z,100099.75
2022-07-29T22:02:03.497Z,100100.22
2022-07-29T22:04:30.951Z,100092.09
2022-07-29T22:06:58.518Z,100095.41
2022-07-29T22:09:25.728Z,100092.69
2022-07-29T22:11:52.500Z,100093.53
2022-07-29T22:14:19.393Z,100084.78
2022-07-29T22:16:46.786Z,100091.28
2022-07-29T22:19:14.176Z,100082.63
2022-07-29T22:21:41.792Z,100083.47
2022-07-29T22:24:10.319Z,100085.06
2022-07-29T22:26:38.163Z,100093.78
2022-07-29T22:29:05.058Z,100083.22
2022-07-29T22:31:31.819Z,100083.31
2022-07-29T22:33:58.567Z,100077.94
2022-07-29T22:36:26.257Z,100073.81
2022-07-29T22:38:52.922Z,100073.56
2022-07-29T22:41:19.699Z,100071.44
2022-07-29T22:43:46.391Z,100061.16
2022-07-29T22:46:13.138Z,100068.78
2022-07-29T22:48:39.925Z,100071.03
2022-07-29T22:51:06.778Z,100064.59
2022-07-29T22:53:33.460Z,100063.56
2022-07-29T22:56:00.239Z,100057.91
2022-07-29T22:58:26.925Z,100055.50
2022-07-29T23:00:53.913Z,100054.97
2022-07-29T23:03:21.261Z,100052.03
2022-07-29T23:05:48.168Z,100049.56
2022-07-29T23:08:14.983Z,100050.94
2022-07-29T23:10:41.722Z,100050.97
2022-07-29T23:13:08.640Z,100056.09
2022-07-29T23:15:35.285Z,100046.84
2022-07-29T23:18:02.063Z,100047.38
2022-07-29T23:20:28.900Z,100045.47
2022-07-29T23:22:55.616Z,100037.56
2022-07-29T23:25:22.447Z,100041.38
2022-07-29T23:27:49.114Z,100036.19
2022-07-29T23:30:15.843Z,100032.13
2022-07-29T23:32:42.504Z,100044.66
2022-07-29T23:35:09.608Z,100058.72
2022-07-29T23:37:36.638Z,100069.47
2022-07-29T23:40:04.707Z,100054.94
2022-07-29T23:42:31.551Z,100029.78
2022-07-29T23:44:58.283Z,100047.56
2022-07-29T23:47:24.965Z,100049.59
2022-07-29T23:49:51.718Z,100052.22
2022-07-29T23:52:18.644Z,100047.50
2022-07-29T23:54:45.407Z,100031.81
2022-07-29T23:57:12.293Z,100022.53
2022-07-29T23:59:38.968Z,100027.41
